createdAt,value
2022-08-30T19:02:27.713Z,24.58
2022-08-30T19:04:54.921Z,28.08
2022-08-30T19:07:22.516Z,29.77
2022-08-30T19:09:55.763Z,35.00
2022-08-30T19:12:26.132Z,48.28
2022-08-30T19:17:44.370Z,91.07
2022-08-30T19:20:13.475Z,88.50
2022-08-30T19:23:43.116Z,133.82
2022-08-30T19:28:56.258Z,173.05
2022-08-30T19:31:23.218Z,215.25
2022-08-30T19:33:49.807Z,335.48
2022-08-30T19:36:16.431Z,328.27
2022-08-30T19:38:44.575Z,372.13
2022-08-30T19:41:13.011Z,424.50
2022-08-30T19:43:39.766Z,398.13
2022-08-30T19:46:06.766Z,460.75
2022-08-30T19:48:39.016Z,551.65
2022-08-30T19:51:08.607Z,491.77
2022-08-30T19:53:35.720Z,499.60
2022-08-30T19:56:02.488Z,520.30
2022-08-30T19:58:30.214Z,550.50
2022-08-30T20:03:45.156Z,451.85
2022-08-30T20:06:11.695Z,609.55
2022-08-30T20:08:38.258Z,611.75
2022-08-30T20:11:05.815Z,623.28
2022-08-30T20:13:33.896Z,632.40
2022-08-30T20:16:01.070Z,696.67
2022-08-30T20:18:28.897Z,724.60
2022-08-30T20:20:55.836Z,656.42
2022-08-30T20:23:25.938Z,704.15
2022-08-30T20:25:54.423Z,677.78
2022-08-30T20:28:21.209Z,682.60
2022-08-30T20:30:49.380Z,721.72
2022-08-30T20:33:17.391Z,707.88
2022-08-30T20:35:49.001Z,700.20
2022-08-30T20:38:21.211Z,695.30
2022-08-30T20:40:50.414Z,721.60
2022-08-30T20:43:18.967Z,681.88
2022-08-30T20:45:45.998Z,712.60
2022-08-30T20:48:13.191Z,710.38
2022-08-30T20:50:40.962Z,741.10
2022-08-30T20:53:08.192Z,706.95
2022-08-30T20:55:34.739Z,701.20
2022-08-30T20:58:01.305Z,728.15
2022-08-30T21:00:27.827Z,699.22
2022-08-30T21:02:54.443Z,747.20
2022-08-30T21:05:21.144Z,728.72
2022-08-30T21:07:47.727Z,707.75
2022-08-30T21:10:14.861Z,672.47
2022-08-30T21:12:42.835Z,709.75
2022-08-30T21:15:34.092Z,655.92
2022-08-30T21:17:56.799Z,664.65
2022-08-30T21:20:23.430Z,622.33
2022-08-30T21:22:50.035Z,618.65
2022-08-30T21:25:16.716Z,599.00
2022-08-30T21:27:44.016Z,606.95
2022-08-30T21:30:14.639Z,595.33
2022-08-30T21:32:41.314Z,627.50
2022-08-30T21:35:27.816Z,645.47
2022-08-30T21:37:54.736Z,609.53
2022-08-30T21:40:21.505Z,578.35
2022-08-30T21:42:48.224Z,562.15
2022-08-30T21:45:15.307Z,570.13
2022-08-30T21:47:42.347Z,558.78
2022-08-30T21:50:09.304Z,538.30
2022-08-30T21:52:36.267Z,551.65
2022-08-30T21:55:03.072Z,545.20
2022-08-30T21:57:30.261Z,534.10
2022-08-30T21:59:56.900Z,525.42
2022-08-30T22:02:23.578Z,496.98
2022-08-30T22:04:50.125Z,505.52
2022-08-30T22:07:16.722Z,471.70
2022-08-30T22:09:45.783Z,487.25
2022-08-30T22:12:12.378Z,438.88
2022-08-30T22:14:39.430Z,397.08
2022-08-30T22:17:05.997Z,344.25
2022-08-30T22:19:33.808Z,321.70
2022-08-30T22:22:01.685Z,282.90
2022-08-30T22:24:32.727Z,274.50
2022-08-30T22:27:01.271Z,275.25
2022-08-30T22:29:28.239Z,255.10
2022-08-30T22:31:54.855Z,253.20
2022-08-30T22:34:21.456Z,233.60
2022-08-30T22:36:48.071Z,242.27
2022-08-30T22:39:15.119Z,239.88
2022-08-30T22:41:42.930Z,247.00
2022-08-30T22:44:10.598Z,235.45
2022-08-30T22:46:37.850Z,243.52
2022-08-30T22:49:07.670Z,236.27
2022-08-30T22:51:35.260Z,252.35
2022-08-30T22:54:02.620Z,234.20
2022-08-30T22:56:30.758Z,235.38
2022-08-30T22:58:57.353Z,246.90
2022-08-30T23:01:31.965Z,230.73
2022-08-30T23:04:01.118Z,226.18
2022-08-30T23:06:29.103Z,235.52
2022-08-30T23:08:55.904Z,228.85
2022-08-30T23:11:23.685Z,227.60
2022-08-30T23:13:50.651Z,237.60
2022-08-30T23:16:17.698Z,225.23
2022-08-30T23:18:45.648Z,239.85
2022-08-30T23:21:15.274Z,230.10
2022-08-30T23:24:01.371Z,223.20
2022-08-30T23:26:46.605Z,216.45
2022-08-30T23:29:31.969Z,221.38
2022-08-30T23:32:17.798Z,211.07
2022-08-30T23:35:03.286Z,201.93
2022-08-30T23:37:48.623Z,192.68
2022-08-30T23:40:38.976Z,175.10
2022-08-30T23:43:24.243Z,185.02
2022-08-30T23:46:09.238Z,186.77
2022-08-30T23:48:54.267Z,189.95
2022-08-30T23:51:39.718Z,149.57
2022-08-30T23:54:25.084Z,134.23
2022-08-30T23:57:10.407Z,141.82
2022-08-30T23:59:56.136Z,132.13
